Time;durP1;ratioP1;P1;durP2;ratioP2;P2;SDS_P1;SDS_P2;PMS_P1;PMS_P2;Temp;Humidity;BMP_temperature;BMP_pressure;BME280_temperature;BME280_humidity;BME280_pressure;Samples;Min_cycle;Max_cycle;Signal;HPM_P1;HPM_P2
2021/11/26 06:39:31;;;;;;;81.05;49.88;;;;;;;0.35;91.41;97126.48;1890765;76;28385;-59
2021/11/26 06:41:59;;;;;;;72.53;42.53;;;;;;;0.34;91.45;97136.73;1861678;77;20918;-58
2021/11/26 06:44:26;;;;;;;40.90;27.07;;;;;;;0.40;91.44;97131.81;1861739;77;21973;-56
2021/11/26 06:46:52;;;;;;;31.70;22.05;;;;;;;0.48;91.44;97130.05;1861554;77;20981;-61
2021/11/26 06:49:19;;;;;;;38.45;25.15;;;;;;;0.58;91.40;97127.53;1861643;77;21271;-60
2021/11/26 06:51:46;;;;;;;46.88;34.30;;;;;;;0.70;91.30;97129.50;1861487;77;20880;-60
2021/11/26 06:54:13;;;;;;;38.48;26.23;;;;;;;0.81;91.03;97129.88;1861827;77;20978;-58
2021/11/26 06:56:41;;;;;;;35.35;26.23;;;;;;;0.90;90.83;97121.78;1861698;77;21115;-59
2021/11/26 06:59:08;;;;;;;33.50;23.38;;;;;;;0.97;90.63;97128.97;1861492;77;20856;-60
2021/11/26 07:01:34;;;;;;;82.57;43.50;;;;;;;1.07;90.44;97129.07;1861669;77;20880;-60
2021/11/26 07:04:02;;;;;;;89.97;47.43;;;;;;;1.16;90.16;97131.52;1861559;77;20986;-61
2021/11/26 07:06:29;;;;;;;46.13;31.00;;;;;;;1.21;89.89;97128.93;1861817;77;20903;-62
2021/11/26 07:08:56;;;;;;;33.55;23.70;;;;;;;1.24;89.75;97124.48;1857489;77;21406;-58
2021/11/26 07:11:23;;;;;;;40.30;24.45;;;;;;;1.29;89.62;97127.16;1851907;77;20904;-59
2021/11/26 07:13:50;;;;;;;45.38;30.30;;;;;;;1.30;89.20;97128.73;1782770;80;20904;-62
2021/11/26 07:16:19;;;;;;;64.97;42.40;;;;;;;1.31;89.19;97131.66;1785700;80;20872;-59
2021/11/26 07:18:45;;;;;;;37.73;26.80;;;;;;;1.33;89.17;97128.24;1764073;81;21423;-59
2021/11/26 07:21:13;;;;;;;63.68;39.73;;;;;;;1.39;89.17;97126.42;1764461;81;21118;-58
2021/11/26 07:23:41;;;;;;;54.03;33.67;;;;;;;1.42;89.02;97125.12;1761487;80;21002;-58
2021/11/26 07:26:10;;;;;;;58.52;38.58;;;;;;;1.44;88.91;97119.86;1777458;80;20943;-60
2021/11/26 07:28:36;;;;;;;34.18;24.70;;;;;;;1.48;88.94;97121.48;1782201;80;21514;-57
2021/11/26 07:31:04;;;;;;;36.00;25.43;;;;;;;1.49;88.88;97121.73;1787615;80;20936;-60
2021/11/26 07:33:31;;;;;;;54.05;35.48;;;;;;;1.50;88.88;97111.47;1771465;79;21117;-58
2021/11/26 07:35:59;;;;;;;44.45;29.50;;;;;;;1.51;88.81;97110.44;1794243;80;20880;-61
2021/11/26 07:38:25;;;;;;;42.05;27.58;;;;;;;1.54;88.78;97109.91;1782581;80;20897;-61
2021/11/26 07:40:54;;;;;;;117.55;59.20;;;;;;;1.55;88.73;97108.87;1758011;81;21440;-59
2021/11/26 07:43:21;;;;;;;51.00;30.55;;;;;;;1.55;88.88;97111.51;1746236;81;20995;-61
2021/11/26 07:45:49;;;;;;;63.02;36.63;;;;;;;1.54;88.91;97102.78;1745620;81;21920;-58
2021/11/26 07:48:15;;;;;;;39.73;27.77;;;;;;;1.53;88.98;97103.83;1815273;78;21089;-60
2021/11/26 07:50:44;;;;;;;37.65;28.50;;;;;;;1.53;88.90;97097.78;1818798;78;20900;-62
2021/11/26 07:53:11;;;;;;;37.93;27.73;;;;;;;1.50;88.95;97095.64;1815561;78;20951;-61
2021/11/26 07:55:38;;;;;;;40.38;27.25;;;;;;;1.50;89.02;97101.72;1810984;78;21041;-63
2021/11/26 07:58:07;;;;;;;45.98;26.73;;;;;;;1.52;88.84;97095.66;1815308;78;22562;-59
2021/11/26 08:00:37;;;;;;;45.78;29.55;;;;;;;1.48;88.77;97102.50;1812518;78;21008;-62
2021/11/26 08:03:06;;;;;;;36.28;23.80;;;;;;;1.45;88.77;97091.64;1817747;78;21075;-60
2021/11/26 08:05:33;;;;;;;31.05;22.22;;;;;;;1.46;88.90;97090.60;1811361;78;21015;-60
2021/11/26 08:08:01;;;;;;;27.00;19.65;;;;;;;1.48;89.07;97088.50;1818569;78;20969;-56
2021/11/26 08:10:28;;;;;;;30.85;20.32;;;;;;;1.48;88.87;97077.95;1820058;78;21856;-64
2021/11/26 08:12:55;;;;;;;28.27;20.02;;;;;;;1.50;88.89;97082.44;1818641;78;21056;-55
2021/11/26 08:15:22;;;;;;;29.90;22.40;;;;;;;1.49;88.79;97078.20;1817966;78;20988;-59
2021/11/26 08:17:51;;;;;;;32.53;22.22;;;;;;;1.47;88.86;97082.94;1818669;78;21507;-62
2021/11/26 08:20:18;;;;;;;27.90;20.80;;;;;;;1.48;89.00;97079.27;1819095;78;21483;-59
2021/11/26 08:22:46;;;;;;;29.40;22.40;;;;;;;1.50;88.79;97077.16;1818148;78;21138;-62
2021/11/26 08:25:14;;;;;;;28.20;20.45;;;;;;;1.52;88.71;97065.82;1818795;78;21097;-62
2021/11/26 08:27:42;;;;;;;28.80;21.05;;;;;;;1.59;88.64;97068.52;1823560;78;20958;-58
2021/11/26 08:30:10;;;;;;;53.60;34.03;;;;;;;1.65;88.50;97057.47;1822028;78;21004;-60
2021/11/26 08:32:37;;;;;;;70.72;45.58;;;;;;;1.67;88.27;97053.50;1818080;78;21064;-59
2021/11/26 08:35:05;;;;;;;33.70;24.60;;;;;;;1.67;88.14;97046.89;1818260;78;21126;-63
2021/11/26 08:37:32;;;;;;;26.20;20.85;;;;;;;1.65;87.95;97031.84;1816486;78;21028;-62
2021/11/26 08:39:59;;;;;;;29.90;22.50;;;;;;;1.66;87.94;97024.72;1818419;78;20964;-58
2021/11/26 08:42:25;;;;;;;27.15;20.80;;;;;;;1.70;87.99;97029.75;1818169;78;21101;-62
2021/11/26 08:44:53;;;;;;;30.02;20.92;;;;;;;1.73;87.88;97027.92;1818220;78;21068;-61
2021/11/26 08:47:20;;;;;;;28.27;19.12;;;;;;;1.76;87.77;97020.30;1813478;78;21800;-63
2021/11/26 08:49:48;;;;;;;33.83;22.40;;;;;;;1.81;87.58;97022.97;1815972;78;20962;-59
2021/11/26 08:52:14;;;;;;;24.25;17.98;;;;;;;1.87;87.44;97017.97;1818132;78;21024;-60
2021/11/26 08:54:43;;;;;;;35.03;24.00;;;;;;;1.92;86.94;97019.31;1817513;78;21356;-57
2021/11/26 08:57:13;;;;;;;37.55;23.30;;;;;;;1.97;86.88;97023.30;1805465;78;21043;-60
2021/11/26 08:59:40;;;;;;;25.77;19.10;;;;;;;2.01;86.89;97013.80;1811673;78;21098;-63
2021/11/26 09:02:07;;;;;;;28.75;20.88;;;;;;;2.08;86.66;97009.06;1815892;78;20998;-61
2021/11/26 09:04:34;;;;;;;32.10;20.70;;;;;;;2.14;86.51;96998.52;1814577;78;21111;-62
2021/11/26 09:07:01;;;;;;;27.07;20.12;;;;;;;2.18;86.13;96992.45;1818508;78;21068;-63
2021/11/26 09:09:29;;;;;;;24.20;18.70;;;;;;;2.20;86.06;96989.02;1821624;78;21527;-59
2021/11/26 09:11:56;;;;;;;30.45;21.35;;;;;;;2.24;85.76;96985.34;1819661;78;21083;-61
2021/11/26 09:14:23;;;;;;;35.43;25.27;;;;;;;2.26;85.73;96976.06;1818118;78;21041;-61
2021/11/26 09:16:50;;;;;;;33.30;25.08;;;;;;;2.29;85.72;96964.19;1818306;78;21071;-60
2021/11/26 09:19:16;;;;;;;30.92;22.67;;;;;;;2.32;85.56;96957.06;1815160;78;21429;-62
2021/11/26 09:21:43;;;;;;;39.63;27.85;;;;;;;2.36;85.51;96957.59;1814518;78;21005;-62
2021/11/26 09:24:10;;;;;;;32.33;25.15;;;;;;;2.40;85.35;96958.64;1821231;78;22540;-61
2021/11/26 09:26:38;;;;;;;29.30;21.02;;;;;;;2.44;85.47;96951.80;1814188;78;21132;-59
2021/11/26 09:29:05;;;;;;;28.07;21.00;;;;;;;2.48;85.49;96944.92;1814809;78;21017;-63
2021/11/26 09:31:32;;;;;;;33.28;24.40;;;;;;;2.52;85.47;96945.20;1817320;78;21022;-62
